Webcam 1 more information Webcam 1


Webcam 2 more information Webcam 2


altri nostri siti meteo:

Pomeziameteo 1Sito sul meteo

Pomeziameteo DashboardSito sul meteo

Caput FrigorisSito sul meteo

BarcellonameteoSito sul meteo

MeteoipassiSito sul meteo

ViterbometeoSito sul meteo

MeteotortoretoSito sul meteo

Stazione LineameteoSito sul meteo



Nessuna attenzione particolare richiesta.    Non ci sono allerte meteo

Notice: Undefined offset: 6 in /web/htdocs/www.castelnuovovomanometeo.it/home/weather28/metar/metarDisplay.php on line 76

Notice: Undefined offset: 5 in /web/htdocs/www.castelnuovovomanometeo.it/home/weather28/metar/metarDisplay.php on line 76

Report METAR

   
LIBP - Pescara
Dati ricevuti: 14-10-2019 08:50
DATI Obsoleti
Poche nuvole  
Poche nuvole  
   Vento: SW 7.4 km/h
Vento: SW 7.4 km/h
Temperatura: 14°C
P.to Rugiada: 13°C
Umidita: 94%
Barometro: 1023 hPa
Nuvole: Poche nuvole
Visibilita: oltre 10 km
dettagli cloud: Poche nuvole 1200 ft
LIBP 140650Z 23004KT 9999 FEW012 14/13 Q1023
LIRZ - Perugia
Dati ricevuti: 14-10-2019 09:50
Nearby Fog, Poche nuvole  
Nearby Fog, Poche nuvole  
   Vento: Variabile 3.7 km/h
Vento: Variabile 3.7 km/h
Temperatura: 14°C
P.to Rugiada: 12°C
Umidita: 88%
Barometro: 1023 hPa
Nuvole: Poche nuvole
Visibilita: oltre 10 km
dettagli cloud: Poche nuvole 500 ft
LIRZ 140750Z VRB02KT 9999 VCFG FEW005 14/12 Q1023
LIQN - Rieti
Dati ricevuti: 14-10-2019 10:00
Nebbia, Parzialmente nuvoloso  
Nebbia, Parzialmente nuvoloso  
   Vento: Variabile 3.7 km/h
Vento: Variabile 3.7 km/h
Temperatura: 12°C
P.to Rugiada: 12°C
Umidita: 100%
Barometro: 1024 hPa
Nuvole: Parzialmente nuvoloso
Visibilita: 3 km
dettagli cloud: Parzialmente nuvoloso 500 ft
LIQN 140800Z VRB02KT 3000 1000N BR SCT005 12/12 Q1024
LIPY - Falconara
Dati ricevuti: 14-10-2019 09:50
Molto nuvoloso  
Molto nuvoloso  
   Vento: SW 7.4 km/h
Vento: SW 7.4 km/h
Temperatura: 16°C
P.to Rugiada: 15°C
Umidita: 94%
Barometro: 1023 hPa
Nuvole: Molto nuvoloso
Visibilita: 7 km
dettagli cloud: Parzialmente nuvoloso 400 ft,
Molto nuvoloso 1200 ft
LIPY 140750Z 23004KT 7000 SCT004 BKN012 16/15 Q1023
  

Script sviluppato da  Saratoga-weather.org Adattato per il modello da  Weerstation Leuven

Potete trovare le nostre info meteo anche a:

Weather Underground

AWEKAS

Citizen Weather Observer Program (CWOP)

HAMweather, WeatherForYou, PWS Weather

Strumentazione usata:

Stazione meteo
Oregon 928

Programma gestore dati meteo
WVIEW

Server per i dati meteo
Pc-WDS5

Oregon 928

WVIEW

Pc-WDS5